Time;durP1;ratioP1;P1;durP2;ratioP2;P2;SDS_P1;SDS_P2;PMS_P1;PMS_P2;Temp;Humidity;BMP_temperature;BMP_pressure;BME280_temperature;BME280_humidity;BME280_pressure;Samples;Min_cycle;Max_cycle;Signal;HPM_P1;HPM_P2
2023/09/20 00:00:40;;;;;;;15.23;6.95;;;16.30;99.90;;;;;;5073236;28;20404;-59
2023/09/20 00:03:06;;;;;;;12.57;6.32;;;16.20;99.90;;;;;;5073022;28;20072;-60
2023/09/20 00:05:33;;;;;;;14.23;6.00;;;16.10;99.90;;;;;;5073428;28;20040;-59
2023/09/20 00:08:02;;;;;;;14.43;5.97;;;16.20;99.90;;;;;;5073434;28;20044;-59
2023/09/20 00:10:28;;;;;;;14.18;5.70;;;16.20;99.90;;;;;;5073280;28;20063;-60
2023/09/20 00:12:53;;;;;;;15.90;6.53;;;16.20;99.90;;;;;;5072990;28;20036;-59
2023/09/20 00:15:19;;;;;;;15.70;5.90;;;16.20;99.90;;;;;;5072941;28;20413;-59
2023/09/20 00:17:44;;;;;;;11.95;5.65;;;16.20;99.90;;;;;;5073110;28;20032;-60
2023/09/20 00:20:13;;;;;;;13.82;5.75;;;16.20;99.90;;;;;;5072929;28;20408;-59
2023/09/20 00:22:40;;;;;;;14.32;5.80;;;16.10;99.90;;;;;;5072977;28;20043;-59
2023/09/20 00:25:07;;;;;;;11.63;5.68;;;16.20;99.90;;;;;;5072801;28;20404;-60
2023/09/20 00:27:34;;;;;;;13.68;6.75;;;16.20;99.90;;;;;;5072812;28;20075;-59
2023/09/20 00:30:00;;;;;;;14.45;6.38;;;16.30;99.90;;;;;;5054904;28;20036;-59
2023/09/20 00:32:25;;;;;;;15.48;6.60;;;16.00;99.90;;;;;;5072815;28;20041;-59
2023/09/20 00:34:51;;;;;;;18.83;6.72;;;16.20;99.90;;;;;;5072591;28;20071;-48
2023/09/20 00:37:17;;;;;;;14.38;6.15;;;16.10;99.90;;;;;;5072842;28;20037;-45
2023/09/20 00:39:42;;;;;;;18.25;5.95;;;16.20;99.90;;;;;;5072804;28;20044;-46
2023/09/20 00:42:08;;;;;;;15.13;6.22;;;16.20;99.90;;;;;;5072759;28;20044;-46
2023/09/20 00:44:35;;;;;;;15.18;6.75;;;16.10;99.90;;;;;;5072596;28;20044;-47
2023/09/20 00:47:03;;;;;;;18.02;6.75;;;16.00;99.90;;;;;;5071084;28;20064;-47
2023/09/20 00:49:29;;;;;;;16.55;6.65;;;16.10;99.90;;;;;;5072564;28;20428;-47
2023/09/20 00:51:55;;;;;;;13.32;4.95;;;16.10;99.90;;;;;;5072360;28;20040;-46
2023/09/20 00:54:22;;;;;;;10.98;5.47;;;16.20;99.90;;;;;;5072407;28;20044;-48
2023/09/20 00:56:49;;;;;;;15.13;5.32;;;16.20;99.90;;;;;;5072295;28;20036;-45
2023/09/20 00:59:17;;;;;;;14.25;5.38;;;16.40;99.90;;;;;;5072199;28;20048;-50
2023/09/20 01:01:42;;;;;;;19.50;6.07;;;16.30;99.90;;;;;;5070919;28;20056;-50
2023/09/20 01:04:08;;;;;;;17.88;5.75;;;16.30;99.90;;;;;;5070932;28;20044;-48
2023/09/20 01:06:36;;;;;;;15.70;6.30;;;16.40;99.90;;;;;;5072279;28;20435;-47
2023/09/20 01:09:03;;;;;;;12.13;6.22;;;16.40;99.90;;;;;;5072361;28;20040;-50
2023/09/20 01:11:29;;;;;;;14.88;5.72;;;16.40;99.90;;;;;;5072056;28;20044;-49
2023/09/20 01:13:56;;;;;;;16.05;6.70;;;16.50;99.90;;;;;;5072413;28;20118;-49
2023/09/20 01:16:21;;;;;;;17.25;5.80;;;16.50;99.90;;;;;;5072298;28;20032;-50
2023/09/20 01:18:48;;;;;;;16.63;5.70;;;16.50;99.90;;;;;;5072332;28;20374;-45
2023/09/20 01:21:13;;;;;;;12.32;5.13;;;16.50;99.90;;;;;;5072303;28;20068;-46
2023/09/20 01:23:42;;;;;;;16.90;5.32;;;16.50;99.90;;;;;;5071391;28;20080;-49
2023/09/20 01:26:12;;;;;;;12.50;6.35;;;16.40;99.90;;;;;;5072268;28;20392;-46
2023/09/20 01:28:38;;;;;;;15.52;6.15;;;16.50;99.90;;;;;;5071848;28;20047;-48
2023/09/20 01:31:07;;;;;;;15.13;6.57;;;16.40;99.90;;;;;;5071654;28;20041;-47
2023/09/20 01:33:33;;;;;;;18.02;6.82;;;16.40;99.90;;;;;;5071809;28;20516;-50
2023/09/20 01:35:59;;;;;;;15.98;6.88;;;16.30;99.90;;;;;;5072032;28;20044;-49
2023/09/20 01:38:27;;;;;;;13.75;6.22;;;16.30;99.90;;;;;;5071997;28;20111;-49
2023/09/20 01:40:55;;;;;;;15.20;6.13;;;16.30;99.90;;;;;;5071826;28;20119;-49
2023/09/20 01:43:24;;;;;;;15.07;6.35;;;16.40;99.90;;;;;;5071984;28;20048;-50
2023/09/20 01:45:50;;;;;;;17.58;6.45;;;16.40;99.90;;;;;;5071856;28;20060;-48
2023/09/20 01:48:16;;;;;;;12.23;5.88;;;16.30;99.90;;;;;;5071861;28;20053;-47
2023/09/20 01:50:41;;;;;;;15.35;5.55;;;16.20;99.90;;;;;;5071568;28;20095;-46
2023/09/20 01:53:10;;;;;;;15.50;5.40;;;16.40;99.90;;;;;;5071730;28;20063;-47
2023/09/20 01:55:37;;;;;;;14.02;5.30;;;16.20;99.90;;;;;;5071606;28;20044;-46
2023/09/20 01:58:06;;;;;;;16.33;5.78;;;16.30;99.90;;;;;;5070631;28;20465;-46
2023/09/20 02:00:39;;;;;;;13.10;5.13;;;16.40;99.90;;;;;;5071858;28;20119;-45
2023/09/20 02:03:16;;;;;;;17.27;5.88;;;16.40;99.90;;;;;;5071469;28;20056;-46
2023/09/20 02:05:47;;;;;;;13.07;4.72;;;16.30;99.90;;;;;;5071429;28;20043;-46
2023/09/20 02:08:13;;;;;;;14.27;5.47;;;16.30;99.90;;;;;;5071383;28;20444;-46
2023/09/20 02:10:40;;;;;;;19.08;5.15;;;16.30;99.90;;;;;;5071634;28;20044;-45
2023/09/20 02:13:07;;;;;;;15.77;4.97;;;16.40;99.90;;;;;;5071623;28;20116;-46
2023/09/20 02:15:34;;;;;;;15.43;4.97;;;16.40;99.90;;;;;;5071729;28;20438;-46
2023/09/20 02:18:09;;;;;;;11.48;4.68;;;16.40;99.90;;;;;;5071707;28;20040;-46
2023/09/20 02:20:36;;;;;;;14.48;4.30;;;16.40;99.90;;;;;;5071305;28;20083;-47
2023/09/20 02:23:03;;;;;;;12.23;4.85;;;16.40;99.90;;;;;;5071673;28;20040;-45
2023/09/20 02:25:29;;;;;;;14.63;5.07;;;16.40;99.90;;;;;;5071634;28;20051;-48
2023/09/20 02:27:57;;;;;;;15.75;4.85;;;16.40;99.90;;;;;;5071340;28;20040;-47
2023/09/20 02:30:24;;;;;;;17.00;4.88;;;16.40;99.90;;;;;;5071196;28;20036;-46
2023/09/20 02:32:57;;;;;;;11.95;4.93;;;16.50;99.90;;;;;;5071622;28;20139;-49
2023/09/20 02:35:28;;;;;;;13.88;4.43;;;16.40;99.90;;;;;;5071273;28;20113;-47
2023/09/20 02:37:54;;;;;;;11.98;4.80;;;16.40;99.90;;;;;;5074897;28;20040;-49
2023/09/20 02:40:23;;;;;;;13.63;4.75;;;16.40;99.90;;;;;;5075084;28;20055;-47
2023/09/20 02:42:54;;;;;;;13.60;4.50;;;16.50;99.90;;;;;;5073746;28;20040;-48
2023/09/20 02:45:23;;;;;;;12.75;4.25;;;16.40;99.90;;;;;;5075012;28;20072;-45
2023/09/20 02:47:50;;;;;;;11.82;4.53;;;16.40;99.90;;;;;;5074715;28;20036;-47
2023/09/20 02:50:18;;;;;;;12.63;4.47;;;16.40;99.90;;;;;;5074483;28;20040;-46
2023/09/20 02:52:47;;;;;;;14.02;5.63;;;16.50;99.90;;;;;;5073317;28;20124;-49
2023/09/20 02:55:14;;;;;;;12.30;5.05;;;16.40;99.90;;;;;;5074696;28;20033;-45
2023/09/20 02:57:41;;;;;;;10.18;4.55;;;16.40;99.90;;;;;;5074478;28;20040;-47
2023/09/20 03:00:38;;;;;;;10.20;5.38;;;16.40;99.90;;;;;;5074755;28;20095;-49
2023/09/20 03:03:04;;;;;;;12.80;4.50;;;16.40;99.90;;;;;;5074359;28;20052;-49
2023/09/20 03:05:31;;;;;;;12.57;4.43;;;16.40;99.90;;;;;;5074660;28;20538;-50
2023/09/20 03:07:57;;;;;;;12.88;4.75;;;16.40;99.90;;;;;;5074631;28;20036;-49
2023/09/20 03:10:24;;;;;;;11.63;4.70;;;16.40;99.90;;;;;;5074142;28;20480;-49
2023/09/20 03:12:51;;;;;;;9.98;4.03;;;16.40;99.90;;;;;;5074516;28;20036;-46
2023/09/20 03:15:21;;;;;;;12.02;4.20;;;16.40;99.90;;;;;;5074270;28;20036;-49
2023/09/20 03:17:50;;;;;;;11.82;4.60;;;16.40;99.90;;;;;;5074319;28;20036;-47
2023/09/20 03:20:23;;;;;;;9.20;3.88;;;16.50;99.90;;;;;;5074317;28;20035;-46
2023/09/20 03:22:53;;;;;;;12.77;4.38;;;16.50;99.90;;;;;;5074086;28;20553;-46
2023/09/20 03:25:20;;;;;;;10.48;4.32;;;16.50;99.90;;;;;;5074191;28;20449;-47
2023/09/20 03:27:48;;;;;;;12.27;4.45;;;16.50;99.90;;;;;;5074128;28;20032;-47
2023/09/20 03:30:14;;;;;;;9.90;4.00;;;16.50;99.90;;;;;;5074010;28;20043;-49
2023/09/20 03:32:42;;;;;;;10.75;4.22;;;16.60;99.90;;;;;;5073864;28;20485;-46
2023/09/20 03:35:10;;;;;;;11.38;4.00;;;16.60;99.90;;;;;;5072832;28;20040;-46
2023/09/20 03:37:39;;;;;;;10.27;4.50;;;16.50;99.90;;;;;;5073702;28;20055;-46
2023/09/20 03:40:16;;;;;;;12.07;3.70;;;16.60;99.90;;;;;;5073996;28;20111;-48
2023/09/20 03:42:42;;;;;;;9.68;3.83;;;16.60;99.90;;;;;;5073692;28;20559;-46
2023/09/20 03:45:14;;;;;;;12.77;4.00;;;16.60;99.90;;;;;;5073529;28;20051;-46
2023/09/20 03:47:47;;;;;;;13.13;4.43;;;16.60;99.90;;;;;;5073355;28;20089;-46
2023/09/20 03:50:13;;;;;;;11.65;4.20;;;16.60;99.90;;;;;;5073348;28;20111;-49
2023/09/20 03:52:39;;;;;;;11.25;4.30;;;16.60;99.90;;;;;;5073555;28;20190;-45
2023/09/20 03:55:06;;;;;;;10.63;3.70;;;16.60;99.90;;;;;;5072107;28;20043;-46
2023/09/20 03:57:33;;;;;;;10.70;4.18;;;16.60;99.90;;;;;;5073272;28;20040;-49
2023/09/20 03:59:59;;;;;;;13.85;4.70;;;16.60;99.90;;;;;;5072429;28;20044;-45
2023/09/20 04:02:26;;;;;;;10.80;4.65;;;16.50;99.90;;;;;;5071724;28;20063;-46
2023/09/20 04:04:53;;;;;;;13.45;4.32;;;16.60;99.90;;;;;;5073505;28;20449;-47
2023/09/20 04:07:19;;;;;;;9.93;4.30;;;16.60;99.90;;;;;;5073389;28;20040;-49
2023/09/20 04:09:45;;;;;;;11.00;4.47;;;16.60;99.90;;;;;;5073348;28;20062;-46
2023/09/20 04:12:12;;;;;;;10.45;4.50;;;16.50;99.90;;;;;;5073137;28;20052;-45
2023/09/20 04:14:38;;;;;;;12.45;4.32;;;16.60;99.90;;;;;;5073236;28;20381;-46
2023/09/20 04:17:07;;;;;;;9.18;4.15;;;16.50;99.90;;;;;;5072844;28;20047;-45
2023/09/20 04:19:33;;;;;;;12.32;4.18;;;16.50;99.90;;;;;;5073115;28;20086;-50
2023/09/20 04:22:04;;;;;;;13.80;4.43;;;16.60;99.90;;;;;;5072833;28;20481;-48
2023/09/20 04:24:30;;;;;;;12.02;4.22;;;16.60;99.90;;;;;;5072831;28;20040;-47
2023/09/20 04:26:56;;;;;;;12.07;4.65;;;16.50;99.90;;;;;;5072805;28;20045;-46
2023/09/20 04:29:22;;;;;;;10.90;3.92;;;16.50;99.90;;;;;;5073123;28;20098;-49
2023/09/20 04:31:49;;;;;;;14.48;5.10;;;16.50;99.90;;;;;;5072530;28;20117;-48
2023/09/20 04:34:15;;;;;;;13.18;4.30;;;16.50;99.90;;;;;;5072680;28;20118;-47
2023/09/20 04:36:44;;;;;;;12.15;4.20;;;16.50;99.90;;;;;;5072877;28;20378;-49
2023/09/20 04:39:16;;;;;;;10.75;4.22;;;16.40;99.90;;;;;;5072695;28;20109;-49
2023/09/20 04:41:42;;;;;;;9.35;4.40;;;16.40;99.90;;;;;;5072616;28;20051;-47
2023/09/20 04:44:08;;;;;;;13.18;4.80;;;16.40;99.90;;;;;;5072746;28;20396;-48
2023/09/20 04:46:35;;;;;;;12.77;4.35;;;16.40;99.90;;;;;;5071485;28;20126;-47
2023/09/20 04:49:08;;;;;;;14.20;3.97;;;16.30;99.90;;;;;;5072659;28;20052;-45
2023/09/20 04:51:33;;;;;;;16.48;4.45;;;16.30;99.90;;;;;;5072285;28;20041;-46
2023/09/20 04:53:59;;;;;;;13.55;4.50;;;16.20;99.90;;;;;;5072452;28;20036;-48
2023/09/20 04:56:27;;;;;;;9.70;3.72;;;16.20;99.90;;;;;;5072262;28;20098;-47
2023/09/20 04:58:53;;;;;;;11.35;3.90;;;16.20;99.90;;;;;;5071425;28;20530;-47
2023/09/20 05:01:19;;;;;;;14.40;4.38;;;16.10;99.90;;;;;;5072544;28;20039;-49
2023/09/20 05:03:48;;;;;;;12.23;4.22;;;16.10;99.90;;;;;;5071965;28;20501;-46
2023/09/20 05:06:14;;;;;;;12.40;4.25;;;16.00;99.90;;;;;;5072477;28;20048;-47
2023/09/20 05:08:40;;;;;;;10.27;3.92;;;16.10;99.90;;;;;;5072231;28;20037;-47
2023/09/20 05:11:10;;;;;;;11.65;3.97;;;16.00;99.90;;;;;;5072029;28;20079;-48
2023/09/20 05:13:39;;;;;;;10.70;4.63;;;16.00;99.90;;;;;;5070931;28;20167;-46
2023/09/20 05:16:05;;;;;;;11.85;4.20;;;15.90;99.90;;;;;;5072185;28;20408;-47
2023/09/20 05:18:31;;;;;;;12.68;4.28;;;15.90;99.90;;;;;;5071976;28;20037;-46
2023/09/20 05:20:58;;;;;;;11.32;4.25;;;15.90;99.90;;;;;;5071927;28;20102;-48
2023/09/20 05:23:24;;;;;;;11.07;3.97;;;15.90;99.90;;;;;;5071771;28;20036;-50
2023/09/20 05:25:50;;;;;;;13.63;4.18;;;15.90;99.90;;;;;;5070171;28;20400;-46
2023/09/20 05:28:16;;;;;;;11.68;4.07;;;15.90;99.90;;;;;;5071681;28;20059;-50
2023/09/20 05:30:44;;;;;;;12.68;4.22;;;15.90;99.90;;;;;;5071952;28;20135;-49
2023/09/20 05:33:12;;;;;;;10.63;4.07;;;15.90;99.90;;;;;;5071766;28;20120;-48
2023/09/20 05:35:42;;;;;;;12.77;3.67;;;15.90;99.90;;;;;;5071723;28;20032;-47
2023/09/20 05:38:09;;;;;;;9.35;4.03;;;15.90;99.90;;;;;;5071703;28;20075;-46
2023/09/20 05:40:35;;;;;;;9.23;3.55;;;15.90;99.90;;;;;;5071735;28;20040;-48
2023/09/20 05:43:04;;;;;;;11.52;4.00;;;15.80;99.90;;;;;;5072019;28;20040;-48
2023/09/20 05:45:35;;;;;;;10.60;3.78;;;15.80;99.90;;;;;;5071798;28;20499;-50
2023/09/20 05:48:02;;;;;;;12.70;4.78;;;15.90;99.90;;;;;;5071640;28;20508;-49
2023/09/20 05:50:34;;;;;;;12.00;3.70;;;15.80;99.90;;;;;;5071594;28;20134;-48
2023/09/20 05:53:06;;;;;;;12.32;4.20;;;15.90;99.90;;;;;;5071619;28;20041;-46
2023/09/20 05:55:33;;;;;;;10.57;3.83;;;15.90;99.90;;;;;;5071888;28;20079;-47
2023/09/20 05:58:02;;;;;;;10.02;4.13;;;15.90;99.90;;;;;;5071623;28;20037;-48
2023/09/20 06:00:29;;;;;;;11.70;4.18;;;16.00;99.90;;;;;;5071613;28;20039;-50
2023/09/20 06:02:57;;;;;;;12.52;4.13;;;16.00;99.90;;;;;;5071266;28;20113;-47
2023/09/20 06:05:24;;;;;;;10.27;3.85;;;16.00;99.90;;;;;;5071803;28;20097;-46
2023/09/20 06:07:51;;;;;;;11.15;4.68;;;16.00;99.90;;;;;;5071693;28;20028;-47
2023/09/20 06:10:18;;;;;;;8.75;3.58;;;16.00;99.90;;;;;;5072781;28;20044;-46
2023/09/20 06:12:45;;;;;;;10.23;4.03;;;16.10;99.90;;;;;;5075466;28;20170;-46
2023/09/20 06:15:14;;;;;;;10.45;4.03;;;16.00;99.90;;;;;;5075540;28;20044;-49
2023/09/20 06:17:44;;;;;;;11.80;4.05;;;16.10;99.90;;;;;;5075213;28;20044;-48
2023/09/20 06:20:12;;;;;;;8.70;4.00;;;16.10;99.90;;;;;;5073838;28;20051;-47
2023/09/20 06:22:42;;;;;;;9.23;3.63;;;16.10;99.90;;;;;;5075259;28;20067;-46
2023/09/20 06:25:08;;;;;;;15.68;4.22;;;16.10;99.90;;;;;;5075340;28;20051;-47
2023/09/20 06:27:34;;;;;;;12.30;4.18;;;16.10;99.90;;;;;;5075141;28;20083;-48
2023/09/20 06:30:05;;;;;;;12.20;4.35;;;16.10;99.90;;;;;;5074891;28;20072;-50
2023/09/20 06:32:33;;;;;;;11.25;4.40;;;16.10;99.90;;;;;;5074778;28;20075;-46
2023/09/20 06:35:06;;;;;;;11.13;3.63;;;16.10;99.90;;;;;;5075204;28;20040;-49
2023/09/20 06:37:33;;;;;;;8.95;3.60;;;16.10;99.90;;;;;;5075085;28;20036;-47
2023/09/20 06:40:00;;;;;;;10.57;3.38;;;16.10;99.90;;;;;;5074948;28;20044;-48
2023/09/20 06:42:30;;;;;;;11.38;3.90;;;16.20;99.90;;;;;;5074797;28;20036;-49
2023/09/20 06:44:56;;;;;;;13.05;3.97;;;16.20;99.90;;;;;;5074801;28;20392;-47
2023/09/20 06:47:25;;;;;;;8.82;3.42;;;16.20;99.90;;;;;;5074533;28;20044;-48
2023/09/20 06:49:51;;;;;;;9.80;3.40;;;16.20;99.90;;;;;;5074745;28;20035;-47
2023/09/20 06:52:17;;;;;;;9.27;3.17;;;16.30;99.90;;;;;;5074757;28;20052;-47
2023/09/20 06:54:45;;;;;;;9.93;3.40;;;16.20;99.90;;;;;;5074453;28;20036;-46
2023/09/20 06:57:17;;;;;;;11.50;3.80;;;16.30;99.90;;;;;;5074691;28;20101;-48
2023/09/20 06:59:45;;;;;;;12.48;4.50;;;16.30;99.90;;;;;;5074387;28;20044;-46
2023/09/20 07:02:13;;;;;;;12.07;3.92;;;16.30;99.90;;;;;;5074426;28;20505;-48
2023/09/20 07:04:39;;;;;;;12.40;3.40;;;16.30;99.90;;;;;;5074311;28;20049;-46
2023/09/20 07:07:07;;;;;;;9.88;3.35;;;16.40;99.90;;;;;;5074284;28;20050;-50
2023/09/20 07:09:34;;;;;;;11.25;4.25;;;16.40;99.90;;;;;;5072975;28;20048;-47
2023/09/20 07:12:03;;;;;;;9.82;3.13;;;16.40;99.90;;;;;;5074057;28;20048;-50
2023/09/20 07:14:31;;;;;;;9.20;3.25;;;16.40;99.90;;;;;;5074189;28;20089;-47
2023/09/20 07:17:00;;;;;;;10.15;2.88;;;16.50;99.90;;;;;;5073840;28;20037;-50
2023/09/20 07:19:27;;;;;;;9.75;2.80;;;16.50;99.90;;;;;;5073389;28;20496;-46
2023/09/20 07:21:53;;;;;;;9.13;3.00;;;16.60;99.90;;;;;;5071352;28;20055;-47
2023/09/20 07:24:24;;;;;;;9.85;2.83;;;16.60;99.90;;;;;;5073942;28;20454;-46
2023/09/20 07:26:51;;;;;;;6.32;2.78;;;16.70;99.90;;;;;;5073937;28;20082;-46
2023/09/20 07:29:17;;;;;;;12.15;3.17;;;16.70;99.90;;;;;;5073700;28;20065;-46
2023/09/20 07:31:45;;;;;;;7.07;2.83;;;16.70;99.90;;;;;;5073850;28;20417;-47
2023/09/20 07:34:13;;;;;;;12.73;3.45;;;16.70;99.90;;;;;;5073756;28;20040;-47
2023/09/20 07:36:43;;;;;;;10.00;2.97;;;16.70;99.90;;;;;;5073391;28;20144;-46
2023/09/20 07:39:18;;;;;;;7.88;2.95;;;16.80;99.90;;;;;;5073423;28;20041;-46
2023/09/20 07:41:50;;;;;;;7.65;3.10;;;16.80;99.90;;;;;;5073516;28;20087;-47
2023/09/20 07:44:31;;;;;;;12.48;3.28;;;16.80;99.90;;;;;;5073580;28;20044;-48
2023/09/20 07:47:00;;;;;;;7.63;2.70;;;16.80;99.90;;;;;;5073211;28;20404;-46
2023/09/20 07:49:25;;;;;;;9.45;3.15;;;16.90;99.90;;;;;;5071603;28;20115;-47
2023/09/20 07:51:53;;;;;;;8.68;2.97;;;16.90;99.90;;;;;;5073237;28;20573;-47
2023/09/20 07:54:19;;;;;;;8.70;3.65;;;17.00;99.90;;;;;;5072432;28;20041;-46
2023/09/20 07:56:49;;;;;;;11.00;3.03;;;17.00;99.90;;;;;;5073361;28;20661;-49
2023/09/20 07:59:16;;;;;;;9.40;3.65;;;17.00;99.90;;;;;;5073181;28;20051;-47
2023/09/20 08:01:43;;;;;;;8.38;3.13;;;17.10;99.90;;;;;;5073340;28;20133;-48
2023/09/20 08:04:10;;;;;;;8.18;3.08;;;17.20;99.90;;;;;;5071751;28;20058;-49
2023/09/20 08:06:37;;;;;;;9.75;3.53;;;17.20;99.90;;;;;;5073397;28;20045;-46
2023/09/20 08:09:06;;;;;;;9.75;3.63;;;17.30;99.90;;;;;;5073282;28;20036;-50
2023/09/20 08:11:32;;;;;;;9.40;3.53;;;17.50;99.90;;;;;;5072914;28;20396;-47
2023/09/20 08:14:00;;;;;;;8.98;3.40;;;17.60;99.90;;;;;;5073054;28;20039;-49
2023/09/20 08:16:32;;;;;;;11.57;3.50;;;17.60;99.10;;;;;;5073083;28;20319;-49
2023/09/20 08:19:06;;;;;;;11.15;3.42;;;17.70;99.90;;;;;;5072972;28;20115;-48
2023/09/20 08:21:34;;;;;;;9.40;3.50;;;17.70;96.70;;;;;;5073126;28;20450;-48
2023/09/20 09:00:27;;;;;;;9.85;3.70;;;17.70;86.00;;;;;;5071998;28;20045;-51
2023/09/20 09:02:57;;;;;;;10.27;3.53;;;17.60;91.30;;;;;;5071759;28;20060;-49
2023/09/20 09:05:25;;;;;;;7.47;3.35;;;17.60;90.90;;;;;;5071870;28;20060;-47
2023/09/20 09:07:52;;;;;;;9.52;3.65;;;17.50;89.70;;;;;;5072174;28;20041;-47
2023/09/20 09:10:18;;;;;;;9.43;3.95;;;17.60;89.10;;;;;;5072236;28;20111;-45
2023/09/20 09:12:44;;;;;;;9.45;3.80;;;17.60;91.00;;;;;;5071966;28;20127;-48
2023/09/20 09:15:11;;;;;;;10.07;3.70;;;17.60;87.60;;;;;;5072078;28;20044;-47
2023/09/20 09:17:42;;;;;;;7.65;3.92;;;17.50;90.40;;;;;;5072335;28;20393;-47
2023/09/20 09:20:10;;;;;;;11.27;4.95;;;17.60;90.20;;;;;;5070778;28;20044;-46
2023/09/20 09:22:40;;;;;;;14.52;4.22;;;17.60;92.40;;;;;;5072203;28;20079;-48
2023/09/20 09:25:14;;;;;;;9.48;4.50;;;17.70;93.90;;;;;;5072180;28;20120;-47
2023/09/20 09:27:42;;;;;;;9.45;4.60;;;17.60;88.80;;;;;;5071905;28;20077;-46
2023/09/20 09:30:17;;;;;;;9.13;3.83;;;17.70;90.40;;;;;;5070753;28;20460;-48
2023/09/20 09:32:47;;;;;;;9.40;4.70;;;17.70;88.30;;;;;;5071778;28;20555;-49
2023/09/20 09:35:15;;;;;;;8.95;4.50;;;17.80;83.10;;;;;;5071809;28;20485;-47
2023/09/20 09:37:43;;;;;;;9.77;5.40;;;17.80;82.90;;;;;;5071903;28;20040;-50
2023/09/20 09:40:11;;;;;;;9.98;4.75;;;17.80;87.30;;;;;;5070578;28;20048;-45
2023/09/20 09:42:39;;;;;;;11.25;4.53;;;17.80;82.40;;;;;;5071947;28;20053;-50
2023/09/20 09:45:06;;;;;;;11.20;4.53;;;17.90;84.90;;;;;;5072595;28;20045;-47
2023/09/20 09:47:35;;;;;;;9.38;4.03;;;17.90;90.50;;;;;;5075840;28;20056;-51
2023/09/20 09:50:03;;;;;;;9.85;4.18;;;18.00;88.40;;;;;;5075823;28;20032;-47
2023/09/20 09:52:29;;;;;;;10.25;4.47;;;18.00;79.90;;;;;;5074490;28;20052;-47
2023/09/20 09:54:55;;;;;;;7.88;4.25;;;18.10;80.70;;;;;;5075993;28;20040;-50
2023/09/20 09:57:22;;;;;;;10.48;4.22;;;18.20;81.00;;;;;;5075950;28;20047;-47
2023/09/20 09:59:49;;;;;;;9.73;4.35;;;18.20;76.60;;;;;;5075878;28;20040;-48
2023/09/20 10:02:20;;;;;;;10.73;4.50;;;18.20;79.10;;;;;;5075417;28;20062;-48
2023/09/20 10:04:53;;;;;;;9.32;4.43;;;18.20;73.80;;;;;;5075880;28;20055;-50
2023/09/20 10:07:24;;;;;;;9.73;4.38;;;18.20;74.20;;;;;;5075407;28;20048;-47
2023/09/20 10:09:51;;;;;;;10.32;4.93;;;18.20;77.80;;;;;;5075585;28;20117;-46
2023/09/20 10:12:20;;;;;;;10.88;4.63;;;18.20;75.60;;;;;;5075632;28;20460;-46
2023/09/20 10:14:46;;;;;;;8.98;4.88;;;18.20;72.70;;;;;;5075645;28;20040;-46
2023/09/20 10:17:20;;;;;;;9.45;4.97;;;18.20;73.30;;;;;;5075336;28;20028;-48
2023/09/20 10:19:49;;;;;;;10.82;5.13;;;18.20;71.60;;;;;;5075240;28;20044;-47
2023/09/20 10:22:23;;;;;;;8.75;5.18;;;18.20;76.90;;;;;;5075331;28;20072;-48
2023/09/20 10:24:51;;;;;;;8.82;5.00;;;18.10;74.90;;;;;;5075038;28;20102;-47
2023/09/20 10:27:19;;;;;;;9.27;4.95;;;18.20;80.10;;;;;;5075395;28;20044;-50
2023/09/20 10:30:00;;;;;;;8.68;5.00;;;18.20;78.60;;;;;;5075047;28;20049;-46
2023/09/20 10:32:34;;;;;;;8.93;4.70;;;18.30;76.90;;;;;;5074884;28;20051;-47
2023/09/20 10:35:33;;;;;;;8.27;5.10;;;18.30;77.00;;;;;;5075185;28;20040;-46
2023/09/20 10:38:23;;;;;;;9.57;4.70;;;18.20;71.80;;;;;;5074977;28;20388;-46
2023/09/20 10:40:51;;;;;;;7.97;4.85;;;18.20;74.30;;;;;;5075055;28;20037;-47
2023/09/20 10:43:36;;;;;;;9.40;5.45;;;18.30;77.60;;;;;;5074884;28;20040;-50
2023/09/20 10:46:09;;;;;;;8.48;4.85;;;18.30;68.00;;;;;;5074681;28;20032;-48
2023/09/20 10:48:39;;;;;;;11.88;5.63;;;18.40;72.20;;;;;;5074511;28;20032;-46
2023/09/20 10:51:06;;;;;;;9.32;5.47;;;18.30;68.10;;;;;;5074757;28;20076;-47
2023/09/20 10:53:44;;;;;;;9.65;4.78;;;18.30;64.80;;;;;;5074769;28;20041;-47
2023/09/20 10:56:31;;;;;;;9.05;5.32;;;18.20;66.70;;;;;;5073919;28;20079;-50
2023/09/20 10:58:59;;;;;;;11.30;5.20;;;18.20;69.80;;;;;;5074361;28;20504;-48
2023/09/20 11:01:25;;;;;;;10.98;4.88;;;18.20;71.60;;;;;;5074352;28;20115;-48
2023/09/20 11:03:52;;;;;;;8.60;4.82;;;18.20;69.80;;;;;;5074236;28;20052;-51
2023/09/20 11:06:18;;;;;;;10.27;5.28;;;18.20;65.60;;;;;;5074586;28;20090;-47
2023/09/20 11:08:44;;;;;;;8.82;4.97;;;18.20;67.30;;;;;;5074668;28;20457;-48
2023/09/20 11:11:18;;;;;;;9.68;4.90;;;18.20;67.90;;;;;;5072952;28;20040;-48
2023/09/20 11:13:46;;;;;;;10.02;5.38;;;18.20;70.90;;;;;;5074233;28;20519;-48
2023/09/20 11:16:13;;;;;;;8.52;5.10;;;18.20;70.90;;;;;;5074475;28;20079;-47
2023/09/20 11:18:41;;;;;;;9.00;4.95;;;18.30;70.90;;;;;;5074393;28;20082;-46
2023/09/20 11:21:07;;;;;;;10.63;5.47;;;18.30;71.30;;;;;;5074066;28;20576;-47
2023/09/20 11:23:34;;;;;;;9.70;4.95;;;18.30;70.60;;;;;;5074247;28;20123;-46
2023/09/20 11:26:00;;;;;;;8.38;5.10;;;18.30;72.60;;;;;;5073916;28;20105;-49
2023/09/20 11:28:27;;;;;;;10.18;4.50;;;18.30;64.70;;;;;;5072611;28;20044;-47
2023/09/20 11:30:53;;;;;;;8.80;4.82;;;18.30;64.90;;;;;;5073862;28;20496;-50
2023/09/20 11:33:29;;;;;;;11.77;4.70;;;18.40;66.10;;;;;;5074034;28;20037;-47
2023/09/20 11:35:55;;;;;;;7.07;4.28;;;18.40;66.80;;;;;;5074036;28;20048;-47
2023/09/20 11:38:22;;;;;;;10.00;4.68;;;18.40;68.80;;;;;;5073955;28;20112;-47
2023/09/20 11:40:48;;;;;;;8.30;3.75;;;18.40;59.60;;;;;;5072549;28;20085;-47
2023/09/20 11:43:22;;;;;;;8.05;4.22;;;18.50;61.90;;;;;;5073876;28;20123;-48
2023/09/20 11:45:53;;;;;;;10.45;3.80;;;18.50;68.40;;;;;;5072642;28;20386;-47
2023/09/20 11:48:18;;;;;;;9.50;3.80;;;18.60;64.20;;;;;;5073521;28;20492;-46
2023/09/20 11:50:44;;;;;;;9.48;3.75;;;18.70;66.30;;;;;;5073365;28;20081;-47
2023/09/20 11:53:15;;;;;;;8.10;3.92;;;18.70;62.10;;;;;;5073524;28;20114;-46
2023/09/20 11:55:44;;;;;;;8.77;3.80;;;18.80;55.00;;;;;;5073436;28;20493;-46
2023/09/20 11:58:10;;;;;;;8.63;3.50;;;19.00;54.90;;;;;;5073563;28;20031;-49
2023/09/20 12:00:36;;;;;;;7.10;4.07;;;19.00;54.00;;;;;;5073294;28;20040;-47
2023/09/20 12:03:03;;;;;;;8.43;3.40;;;19.10;48.60;;;;;;5073146;28;20048;-50
2023/09/20 12:05:29;;;;;;;8.90;3.95;;;19.10;50.40;;;;;;5073315;28;20040;-48
2023/09/20 12:07:56;;;;;;;7.13;3.30;;;19.00;44.40;;;;;;5072799;28;20059;-48
2023/09/20 12:10:22;;;;;;;10.68;3.35;;;19.00;48.70;;;;;;5073121;28;20115;-46
2023/09/20 12:12:48;;;;;;;7.00;3.95;;;18.90;56.60;;;;;;5073134;28;20588;-49
2023/09/20 12:15:15;;;;;;;9.35;4.57;;;18.80;54.40;;;;;;5072961;28;20120;-47
2023/09/20 12:17:41;;;;;;;9.10;4.30;;;18.70;46.70;;;;;;5071680;28;20403;-50
2023/09/20 12:20:07;;;;;;;7.63;4.30;;;18.70;50.60;;;;;;5073189;28;20107;-49
2023/09/20 12:22:32;;;;;;;9.10;5.22;;;18.70;55.80;;;;;;5072947;28;20036;-49
2023/09/20 12:24:58;;;;;;;10.00;5.70;;;18.60;48.70;;;;;;5072775;28;20490;-48
2023/09/20 12:27:24;;;;;;;8.00;5.25;;;18.60;45.20;;;;;;5072807;28;20040;-46
2023/09/20 12:29:50;;;;;;;7.50;4.55;;;18.60;50.40;;;;;;5071364;28;20047;-46
2023/09/20 12:32:15;;;;;;;8.73;5.22;;;18.60;46.70;;;;;;5072525;28;20052;-47
2023/09/20 12:34:41;;;;;;;9.90;5.32;;;18.60;46.50;;;;;;5072858;28;20055;-46
2023/09/20 12:37:07;;;;;;;9.13;5.95;;;18.70;47.20;;;;;;5072864;28;20045;-47
2023/09/20 12:39:36;;;;;;;11.63;5.82;;;18.70;43.50;;;;;;5071613;28;20158;-49
2023/09/20 12:42:02;;;;;;;10.50;5.60;;;18.70;42.80;;;;;;5072738;28;20048;-47
2023/09/20 12:44:28;;;;;;;10.25;5.35;;;18.70;46.70;;;;;;5072663;28;20036;-49
2023/09/20 12:46:54;;;;;;;12.57;5.75;;;18.70;46.90;;;;;;5072485;28;20435;-46
2023/09/20 12:49:20;;;;;;;13.73;6.32;;;18.70;46.00;;;;;;5072425;28;20037;-46
2023/09/20 12:51:46;;;;;;;9.93;6.25;;;18.70;47.80;;;;;;5072272;28;20402;-46
2023/09/20 12:54:11;;;;;;;10.60;5.97;;;18.70;48.80;;;;;;5072308;28;20397;-48
2023/09/20 12:56:39;;;;;;;12.30;5.78;;;18.80;48.00;;;;;;5072562;28;20052;-47
2023/09/20 12:59:05;;;;;;;10.57;5.78;;;18.80;49.10;;;;;;5072178;28;20097;-46
2023/09/20 13:01:31;;;;;;;8.32;5.65;;;18.90;51.80;;;;;;5072466;28;20040;-48
2023/09/20 13:03:57;;;;;;;10.57;5.38;;;18.90;51.30;;;;;;5072031;28;20390;-46
2023/09/20 13:06:24;;;;;;;7.25;4.45;;;19.00;49.80;;;;;;5072233;28;20048;-48
2023/09/20 13:08:50;;;;;;;8.50;4.35;;;18.90;42.30;;;;;;5070951;28;20044;-47
2023/09/20 13:11:17;;;;;;;8.38;4.00;;;19.00;44.60;;;;;;5072143;28;20047;-47
2023/09/20 13:13:42;;;;;;;11.80;4.32;;;19.10;49.60;;;;;;5072395;28;20039;-47
2023/09/20 13:16:14;;;;;;;9.60;4.15;;;19.10;50.20;;;;;;5072355;28;20524;-47
2023/09/20 13:18:40;;;;;;;7.57;3.72;;;19.20;50.80;;;;;;5072287;28;20111;-49
2023/09/20 13:21:06;;;;;;;6.60;3.55;;;19.30;50.40;;;;;;5071347;28;20143;-46